sensor_id;sensor_type;location;lat;lon;timestamp;temperature;humidity
28767;DHT22;15921;52.034;20.650;2023-03-15T00:01:11;9.60;99.90
28767;DHT22;15921;52.034;20.650;2023-03-15T00:03:39;9.60;99.90
28767;DHT22;15921;52.034;20.650;2023-03-15T00:06:05;9.60;99.90
28767;DHT22;15921;52.034;20.650;2023-03-15T00:08:31;9.70;99.90
28767;DHT22;15921;52.034;20.650;2023-03-15T00:10:58;9.70;99.90
28767;DHT22;15921;52.034;20.650;2023-03-15T00:13:24;9.70;99.90
28767;DHT22;15921;52.034;20.650;2023-03-15T00:15:51;9.70;99.90
28767;DHT22;15921;52.034;20.650;2023-03-15T00:18:19;9.30;99.90
28767;DHT22;15921;52.034;20.650;2023-03-15T00:20:45;8.80;99.90
28767;DHT22;15921;52.034;20.650;2023-03-15T00:23:12;8.30;99.90
28767;DHT22;15921;52.034;20.650;2023-03-15T00:25:38;7.80;99.90
28767;DHT22;15921;52.034;20.650;2023-03-15T00:28:04;7.50;99.90
28767;DHT22;15921;52.034;20.650;2023-03-15T00:30:30;7.20;99.90
28767;DHT22;15921;52.034;20.650;2023-03-15T00:32:56;7.00;99.90
28767;DHT22;15921;52.034;20.650;2023-03-15T00:35:22;6.60;99.90
28767;DHT22;15921;52.034;20.650;2023-03-15T00:37:49;6.20;99.90
28767;DHT22;15921;52.034;20.650;2023-03-15T00:40:14;6.10;99.90
28767;DHT22;15921;52.034;20.650;2023-03-15T00:42:40;5.90;99.90
28767;DHT22;15921;52.034;20.650;2023-03-15T00:45:07;5.60;99.90
28767;DHT22;15921;52.034;20.650;2023-03-15T00:47:34;5.30;99.90
28767;DHT22;15921;52.034;20.650;2023-03-15T00:49:59;5.10;99.90
28767;DHT22;15921;52.034;20.650;2023-03-15T00:52:25;5.00;99.90
28767;DHT22;15921;52.034;20.650;2023-03-15T00:54:54;4.90;99.90
28767;DHT22;15921;52.034;20.650;2023-03-15T00:57:20;4.80;99.90
28767;DHT22;15921;52.034;20.650;2023-03-15T00:59:46;4.70;99.90
28767;DHT22;15921;52.034;20.650;2023-03-15T01:02:12;4.70;99.90
28767;DHT22;15921;52.034;20.650;2023-03-15T01:04:38;4.50;99.90
28767;DHT22;15921;52.034;20.650;2023-03-15T01:07:04;4.40;99.90
28767;DHT22;15921;52.034;20.650;2023-03-15T01:09:30;4.30;99.90
28767;DHT22;15921;52.034;20.650;2023-03-15T01:11:58;4.30;99.90
28767;DHT22;15921;52.034;20.650;2023-03-15T01:14:24;4.30;99.90
28767;DHT22;15921;52.034;20.650;2023-03-15T01:16:50;4.20;99.90
28767;DHT22;15921;52.034;20.650;2023-03-15T01:19:16;4.00;99.90
28767;DHT22;15921;52.034;20.650;2023-03-15T01:21:42;3.90;99.90
28767;DHT22;15921;52.034;20.650;2023-03-15T01:24:12;3.90;99.90
28767;DHT22;15921;52.034;20.650;2023-03-15T01:26:38;3.80;99.90
28767;DHT22;15921;52.034;20.650;2023-03-15T01:29:04;3.70;99.90
28767;DHT22;15921;52.034;20.650;2023-03-15T01:31:30;3.60;99.90
28767;DHT22;15921;52.034;20.650;2023-03-15T01:33:57;3.70;99.90
28767;DHT22;15921;52.034;20.650;2023-03-15T01:36:23;3.60;99.90
28767;DHT22;15921;52.034;20.650;2023-03-15T01:38:49;3.70;99.90
28767;DHT22;15921;52.034;20.650;2023-03-15T01:41:16;3.70;99.90
28767;DHT22;15921;52.034;20.650;2023-03-15T01:43:42;3.70;99.90
28767;DHT22;15921;52.034;20.650;2023-03-15T01:46:30;3.70;99.90
28767;DHT22;15921;52.034;20.650;2023-03-15T01:49:16;3.70;99.90
28767;DHT22;15921;52.034;20.650;2023-03-15T01:54:33;3.70;99.90
28767;DHT22;15921;52.034;20.650;2023-03-15T01:57:06;3.70;99.90
28767;DHT22;15921;52.034;20.650;2023-03-15T01:59:36;3.70;99.90
28767;DHT22;15921;52.034;20.650;2023-03-15T02:02:04;3.70;99.90
28767;DHT22;15921;52.034;20.650;2023-03-15T02:05:02;3.70;99.90
28767;DHT22;15921;52.034;20.650;2023-03-15T02:07:31;3.70;99.90
28767;DHT22;15921;52.034;20.650;2023-03-15T02:10:06;3.70;99.90
28767;DHT22;15921;52.034;20.650;2023-03-15T02:12:37;3.70;99.90
28767;DHT22;15921;52.034;20.650;2023-03-15T02:15:06;3.70;99.90
28767;DHT22;15921;52.034;20.650;2023-03-15T02:17:38;3.70;99.90
28767;DHT22;15921;52.034;20.650;2023-03-15T02:23:07;3.70;99.90
28767;DHT22;15921;52.034;20.650;2023-03-15T02:28:09;3.80;99.90
28767;DHT22;15921;52.034;20.650;2023-03-15T02:30:36;3.80;99.90
28767;DHT22;15921;52.034;20.650;2023-03-15T02:33:06;3.80;99.90
28767;DHT22;15921;52.034;20.650;2023-03-15T02:35:33;3.80;99.90
28767;DHT22;15921;52.034;20.650;2023-03-15T02:37:59;3.80;99.90
28767;DHT22;15921;52.034;20.650;2023-03-15T02:40:29;3.80;99.90
28767;DHT22;15921;52.034;20.650;2023-03-15T02:42:58;3.80;99.90
28767;DHT22;15921;52.034;20.650;2023-03-15T02:45:26;3.80;99.90
28767;DHT22;15921;52.034;20.650;2023-03-15T02:47:53;3.80;99.90
28767;DHT22;15921;52.034;20.650;2023-03-15T02:50:19;3.80;99.90
28767;DHT22;15921;52.034;20.650;2023-03-15T02:52:45;3.80;99.90
28767;DHT22;15921;52.034;20.650;2023-03-15T02:55:11;3.80;99.90
28767;DHT22;15921;52.034;20.650;2023-03-15T02:57:37;3.70;99.90
28767;DHT22;15921;52.034;20.650;2023-03-15T03:00:03;3.70;99.90
28767;DHT22;15921;52.034;20.650;2023-03-15T03:02:38;3.70;99.90
28767;DHT22;15921;52.034;20.650;2023-03-15T03:05:04;3.60;99.90
28767;DHT22;15921;52.034;20.650;2023-03-15T03:07:30;3.60;99.90
28767;DHT22;15921;52.034;20.650;2023-03-15T03:09:56;3.60;99.90
28767;DHT22;15921;52.034;20.650;2023-03-15T03:12:22;3.60;99.90
28767;DHT22;15921;52.034;20.650;2023-03-15T03:14:47;3.50;99.90
28767;DHT22;15921;52.034;20.650;2023-03-15T03:17:13;3.50;99.90
28767;DHT22;15921;52.034;20.650;2023-03-15T03:19:39;3.40;99.90
28767;DHT22;15921;52.034;20.650;2023-03-15T03:22:04;3.30;99.90
28767;DHT22;15921;52.034;20.650;2023-03-15T03:24:30;3.30;99.90
28767;DHT22;15921;52.034;20.650;2023-03-15T03:26:56;3.20;99.90
28767;DHT22;15921;52.034;20.650;2023-03-15T03:29:23;3.20;99.90
28767;DHT22;15921;52.034;20.650;2023-03-15T03:31:49;3.20;99.90
28767;DHT22;15921;52.034;20.650;2023-03-15T03:34:15;3.20;99.90
28767;DHT22;15921;52.034;20.650;2023-03-15T03:36:44;3.20;99.90
28767;DHT22;15921;52.034;20.650;2023-03-15T03:39:10;3.20;99.90
28767;DHT22;15921;52.034;20.650;2023-03-15T03:41:35;3.30;99.90
28767;DHT22;15921;52.034;20.650;2023-03-15T03:44:02;3.30;99.90
28767;DHT22;15921;52.034;20.650;2023-03-15T03:46:27;3.30;99.90
28767;DHT22;15921;52.034;20.650;2023-03-15T03:48:54;3.30;99.90
28767;DHT22;15921;52.034;20.650;2023-03-15T03:51:20;3.40;99.90
28767;DHT22;15921;52.034;20.650;2023-03-15T03:53:46;3.40;99.90
28767;DHT22;15921;52.034;20.650;2023-03-15T03:56:11;3.40;99.90
28767;DHT22;15921;52.034;20.650;2023-03-15T03:58:37;3.40;99.90
28767;DHT22;15921;52.034;20.650;2023-03-15T04:01:03;3.30;99.90
28767;DHT22;15921;52.034;20.650;2023-03-15T04:03:29;3.40;99.90
28767;DHT22;15921;52.034;20.650;2023-03-15T04:05:57;3.30;99.90
28767;DHT22;15921;52.034;20.650;2023-03-15T04:08:23;3.30;99.90
28767;DHT22;15921;52.034;20.650;2023-03-15T04:10:55;3.30;99.90
28767;DHT22;15921;52.034;20.650;2023-03-15T04:13:21;3.30;99.90
28767;DHT22;15921;52.034;20.650;2023-03-15T04:15:48;3.30;99.90
28767;DHT22;15921;52.034;20.650;2023-03-15T04:18:14;3.30;99.90
28767;DHT22;15921;52.034;20.650;2023-03-15T04:20:40;3.30;99.90
28767;DHT22;15921;52.034;20.650;2023-03-15T04:23:15;3.30;99.90
28767;DHT22;15921;52.034;20.650;2023-03-15T04:25:42;3.20;99.90
28767;DHT22;15921;52.034;20.650;2023-03-15T04:28:08;3.30;99.90
28767;DHT22;15921;52.034;20.650;2023-03-15T04:30:37;3.20;99.90
28767;DHT22;15921;52.034;20.650;2023-03-15T04:33:03;3.20;99.90
28767;DHT22;15921;52.034;20.650;2023-03-15T04:35:31;3.30;99.90
28767;DHT22;15921;52.034;20.650;2023-03-15T04:37:57;3.30;99.90
28767;DHT22;15921;52.034;20.650;2023-03-15T04:40:23;3.30;99.90
28767;DHT22;15921;52.034;20.650;2023-03-15T04:42:50;3.30;99.90
28767;DHT22;15921;52.034;20.650;2023-03-15T04:45:17;3.20;99.90
28767;DHT22;15921;52.034;20.650;2023-03-15T04:47:42;3.30;99.90
28767;DHT22;15921;52.034;20.650;2023-03-15T04:50:09;3.20;99.90
28767;DHT22;15921;52.034;20.650;2023-03-15T04:52:35;3.20;99.90
28767;DHT22;15921;52.034;20.650;2023-03-15T04:55:00;3.20;99.90
28767;DHT22;15921;52.034;20.650;2023-03-15T04:57:26;3.10;99.90
28767;DHT22;15921;52.034;20.650;2023-03-15T04:59:52;3.20;99.90
28767;DHT22;15921;52.034;20.650;2023-03-15T05:02:17;3.20;99.90
28767;DHT22;15921;52.034;20.650;2023-03-15T05:04:43;3.20;99.90
28767;DHT22;15921;52.034;20.650;2023-03-15T05:07:09;3.20;99.90
28767;DHT22;15921;52.034;20.650;2023-03-15T05:09:35;3.20;99.90
28767;DHT22;15921;52.034;20.650;2023-03-15T05:12:06;3.30;99.90
28767;DHT22;15921;52.034;20.650;2023-03-15T05:14:32;3.30;99.90
28767;DHT22;15921;52.034;20.650;2023-03-15T05:16:58;3.30;99.90
28767;DHT22;15921;52.034;20.650;2023-03-15T05:19:26;3.20;99.90
28767;DHT22;15921;52.034;20.650;2023-03-15T05:21:52;3.20;99.90
28767;DHT22;15921;52.034;20.650;2023-03-15T05:24:20;3.20;99.90
28767;DHT22;15921;52.034;20.650;2023-03-15T05:26:45;3.20;99.90
28767;DHT22;15921;52.034;20.650;2023-03-15T05:29:12;3.10;99.90
28767;DHT22;15921;52.034;20.650;2023-03-15T05:31:38;3.10;99.90
28767;DHT22;15921;52.034;20.650;2023-03-15T05:34:05;3.10;99.90
28767;DHT22;15921;52.034;20.650;2023-03-15T05:36:31;3.10;99.90
28767;DHT22;15921;52.034;20.650;2023-03-15T05:38:57;3.10;99.90
28767;DHT22;15921;52.034;20.650;2023-03-15T05:41:23;3.10;99.90
28767;DHT22;15921;52.034;20.650;2023-03-15T05:43:49;3.10;99.90
28767;DHT22;15921;52.034;20.650;2023-03-15T05:46:16;3.10;99.90
28767;DHT22;15921;52.034;20.650;2023-03-15T05:48:42;3.20;99.90
28767;DHT22;15921;52.034;20.650;2023-03-15T05:51:08;3.20;99.90
28767;DHT22;15921;52.034;20.650;2023-03-15T05:53:33;3.20;99.90
28767;DHT22;15921;52.034;20.650;2023-03-15T05:55:59;3.20;99.90
28767;DHT22;15921;52.034;20.650;2023-03-15T05:58:25;3.20;99.90
28767;DHT22;15921;52.034;20.650;2023-03-15T06:00:51;3.10;99.90
28767;DHT22;15921;52.034;20.650;2023-03-15T06:03:17;3.20;99.90
28767;DHT22;15921;52.034;20.650;2023-03-15T06:05:42;3.10;99.90
28767;DHT22;15921;52.034;20.650;2023-03-15T06:08:08;3.20;99.90
28767;DHT22;15921;52.034;20.650;2023-03-15T06:10:34;3.20;99.90
28767;DHT22;15921;52.034;20.650;2023-03-15T06:13:00;3.10;99.90
28767;DHT22;15921;52.034;20.650;2023-03-15T06:15:26;3.10;99.90
28767;DHT22;15921;52.034;20.650;2023-03-15T06:17:52;3.10;99.90
28767;DHT22;15921;52.034;20.650;2023-03-15T06:20:17;3.10;99.90
28767;DHT22;15921;52.034;20.650;2023-03-15T06:22:43;3.10;99.90
28767;DHT22;15921;52.034;20.650;2023-03-15T06:25:09;3.10;99.90
28767;DHT22;15921;52.034;20.650;2023-03-15T06:27:36;3.10;99.90
28767;DHT22;15921;52.034;20.650;2023-03-15T06:30:02;3.20;99.90
28767;DHT22;15921;52.034;20.650;2023-03-15T06:32:28;3.20;99.90
28767;DHT22;15921;52.034;20.650;2023-03-15T06:34:54;3.20;99.90
28767;DHT22;15921;52.034;20.650;2023-03-15T06:37:20;3.10;99.90
28767;DHT22;15921;52.034;20.650;2023-03-15T06:39:46;3.10;99.90
28767;DHT22;15921;52.034;20.650;2023-03-15T06:42:12;3.10;99.90
28767;DHT22;15921;52.034;20.650;2023-03-15T06:44:39;3.20;99.90
28767;DHT22;15921;52.034;20.650;2023-03-15T06:47:07;3.20;99.90
28767;DHT22;15921;52.034;20.650;2023-03-15T06:49:33;3.30;99.90
28767;DHT22;15921;52.034;20.650;2023-03-15T06:51:58;3.30;99.90
28767;DHT22;15921;52.034;20.650;2023-03-15T06:54:24;3.20;99.90
28767;DHT22;15921;52.034;20.650;2023-03-15T06:56:50;3.10;99.90
28767;DHT22;15921;52.034;20.650;2023-03-15T06:59:16;3.10;99.90
28767;DHT22;15921;52.034;20.650;2023-03-15T07:01:42;3.10;99.90
28767;DHT22;15921;52.034;20.650;2023-03-15T07:04:07;3.10;99.90
28767;DHT22;15921;52.034;20.650;2023-03-15T07:06:34;3.30;99.90
28767;DHT22;15921;52.034;20.650;2023-03-15T07:09:00;3.30;99.90
28767;DHT22;15921;52.034;20.650;2023-03-15T07:11:26;3.40;99.90
28767;DHT22;15921;52.034;20.650;2023-03-15T07:13:52;3.20;99.90
28767;DHT22;15921;52.034;20.650;2023-03-15T07:16:17;3.20;99.90
28767;DHT22;15921;52.034;20.650;2023-03-15T07:18:43;3.20;99.90
28767;DHT22;15921;52.034;20.650;2023-03-15T07:21:09;3.10;99.90
28767;DHT22;15921;52.034;20.650;2023-03-15T07:23:34;3.10;99.90
28767;DHT22;15921;52.034;20.650;2023-03-15T07:26:00;3.10;99.90
28767;DHT22;15921;52.034;20.650;2023-03-15T07:28:26;3.10;99.90
28767;DHT22;15921;52.034;20.650;2023-03-15T07:30:53;3.20;99.90
28767;DHT22;15921;52.034;20.650;2023-03-15T07:33:19;3.20;99.90
28767;DHT22;15921;52.034;20.650;2023-03-15T07:35:47;3.40;99.90
28767;DHT22;15921;52.034;20.650;2023-03-15T07:38:13;3.40;99.90
28767;DHT22;15921;52.034;20.650;2023-03-15T07:40:39;3.60;99.90
28767;DHT22;15921;52.034;20.650;2023-03-15T07:43:05;3.80;99.90
28767;DHT22;15921;52.034;20.650;2023-03-15T07:45:31;3.80;99.90
28767;DHT22;15921;52.034;20.650;2023-03-15T07:47:58;4.00;99.90
28767;DHT22;15921;52.034;20.650;2023-03-15T07:50:25;4.00;99.90
28767;DHT22;15921;52.034;20.650;2023-03-15T07:52:51;4.10;99.90
28767;DHT22;15921;52.034;20.650;2023-03-15T07:55:17;4.10;99.90
28767;DHT22;15921;52.034;20.650;2023-03-15T07:57:43;4.20;99.90
28767;DHT22;15921;52.034;20.650;2023-03-15T08:00:09;4.10;99.90
28767;DHT22;15921;52.034;20.650;2023-03-15T08:02:36;4.30;99.90
28767;DHT22;15921;52.034;20.650;2023-03-15T08:05:02;4.30;99.90
28767;DHT22;15921;52.034;20.650;2023-03-15T08:07:29;4.20;99.90
28767;DHT22;15921;52.034;20.650;2023-03-15T08:09:55;4.10;99.90
28767;DHT22;15921;52.034;20.650;2023-03-15T08:12:24;4.20;99.90
28767;DHT22;15921;52.034;20.650;2023-03-15T08:14:50;4.40;99.90
28767;DHT22;15921;52.034;20.650;2023-03-15T08:17:16;4.30;99.90
28767;DHT22;15921;52.034;20.650;2023-03-15T08:19:42;4.40;99.90
28767;DHT22;15921;52.034;20.650;2023-03-15T08:22:08;4.30;99.90
28767;DHT22;15921;52.034;20.650;2023-03-15T08:24:34;4.40;99.90
28767;DHT22;15921;52.034;20.650;2023-03-15T08:27:00;4.40;99.90
28767;DHT22;15921;52.034;20.650;2023-03-15T08:29:26;4.40;99.90
28767;DHT22;15921;52.034;20.650;2023-03-15T08:31:52;4.50;99.90
28767;DHT22;15921;52.034;20.650;2023-03-15T08:34:18;4.80;99.90
28767;DHT22;15921;52.034;20.650;2023-03-15T08:36:45;4.90;99.90
28767;DHT22;15921;52.034;20.650;2023-03-15T08:39:11;5.10;99.20
28767;DHT22;15921;52.034;20.650;2023-03-15T08:41:37;5.00;99.50
28767;DHT22;15921;52.034;20.650;2023-03-15T08:44:03;5.00;97.60
28767;DHT22;15921;52.034;20.650;2023-03-15T08:46:29;5.00;98.60
28767;DHT22;15921;52.034;20.650;2023-03-15T08:48:56;5.30;98.60
28767;DHT22;15921;52.034;20.650;2023-03-15T08:51:21;5.40;98.80
28767;DHT22;15921;52.034;20.650;2023-03-15T08:53:50;5.50;98.60
28767;DHT22;15921;52.034;20.650;2023-03-15T08:56:16;5.50;98.40
28767;DHT22;15921;52.034;20.650;2023-03-15T08:58:42;5.40;98.50
28767;DHT22;15921;52.034;20.650;2023-03-15T09:01:13;5.20;99.40
28767;DHT22;15921;52.034;20.650;2023-03-15T09:03:38;5.20;98.50
28767;DHT22;15921;52.034;20.650;2023-03-15T09:06:05;5.10;98.40
28767;DHT22;15921;52.034;20.650;2023-03-15T09:08:31;5.10;98.40
28767;DHT22;15921;52.034;20.650;2023-03-15T09:11:00;5.00;98.50
28767;DHT22;15921;52.034;20.650;2023-03-15T09:13:27;4.80;98.50
28767;DHT22;15921;52.034;20.650;2023-03-15T09:15:53;4.60;99.30
28767;DHT22;15921;52.034;20.650;2023-03-15T09:18:20;4.60;99.80
28767;DHT22;15921;52.034;20.650;2023-03-15T09:20:46;4.50;98.00
28767;DHT22;15921;52.034;20.650;2023-03-15T09:23:12;4.60;98.10
28767;DHT22;15921;52.034;20.650;2023-03-15T09:25:38;4.60;98.60
28767;DHT22;15921;52.034;20.650;2023-03-15T09:28:07;4.70;98.20
28767;DHT22;15921;52.034;20.650;2023-03-15T09:30:34;4.90;97.70
28767;DHT22;15921;52.034;20.650;2023-03-15T09:33:00;5.10;98.10
28767;DHT22;15921;52.034;20.650;2023-03-15T09:35:26;5.50;95.70
28767;DHT22;15921;52.034;20.650;2023-03-15T09:37:52;5.70;96.20
28767;DHT22;15921;52.034;20.650;2023-03-15T09:40:23;5.70;95.70
28767;DHT22;15921;52.034;20.650;2023-03-15T09:46:08;5.70;95.80
28767;DHT22;15921;52.034;20.650;2023-03-15T09:49:18;5.80;95.10
28767;DHT22;15921;52.034;20.650;2023-03-15T09:51:48;5.90;95.10
28767;DHT22;15921;52.034;20.650;2023-03-15T09:56:55;6.00;95.00
28767;DHT22;15921;52.034;20.650;2023-03-15T09:59:25;5.90;94.30
28767;DHT22;15921;52.034;20.650;2023-03-15T10:01:55;5.80;93.70
28767;DHT22;15921;52.034;20.650;2023-03-15T10:04:39;6.10;94.50
28767;DHT22;15921;52.034;20.650;2023-03-15T10:07:13;6.10;93.50
28767;DHT22;15921;52.034;20.650;2023-03-15T10:09:39;6.00;94.60
28767;DHT22;15921;52.034;20.650;2023-03-15T10:12:11;6.00;94.40
28767;DHT22;15921;52.034;20.650;2023-03-15T10:20:26;6.00;93.60
28767;DHT22;15921;52.034;20.650;2023-03-15T10:23:18;6.20;93.60
28767;DHT22;15921;52.034;20.650;2023-03-15T10:25:45;6.20;92.60
28767;DHT22;15921;52.034;20.650;2023-03-15T10:30:47;6.30;92.90
28767;DHT22;15921;52.034;20.650;2023-03-15T10:33:34;6.30;93.30
28767;DHT22;15921;52.034;20.650;2023-03-15T10:36:07;6.50;93.20
28767;DHT22;15921;52.034;20.650;2023-03-15T10:38:35;6.30;91.50
28767;DHT22;15921;52.034;20.650;2023-03-15T10:41:04;6.20;92.20
28767;DHT22;15921;52.034;20.650;2023-03-15T10:43:33;6.30;91.50
28767;DHT22;15921;52.034;20.650;2023-03-15T10:48:36;6.10;91.20
28767;DHT22;15921;52.034;20.650;2023-03-15T10:54:10;6.30;91.20
28767;DHT22;15921;52.034;20.650;2023-03-15T10:56:56;6.20;91.40
28767;DHT22;15921;52.034;20.650;2023-03-15T10:59:24;6.20;91.70
28767;DHT22;15921;52.034;20.650;2023-03-15T11:01:52;6.10;91.20
28767;DHT22;15921;52.034;20.650;2023-03-15T11:04:23;6.00;91.30
28767;DHT22;15921;52.034;20.650;2023-03-15T11:09:21;5.90;91.40
28767;DHT22;15921;52.034;20.650;2023-03-15T11:12:03;5.90;91.20
28767;DHT22;15921;52.034;20.650;2023-03-15T11:14:45;6.20;91.70
28767;DHT22;15921;52.034;20.650;2023-03-15T11:17:21;6.40;90.90
28767;DHT22;15921;52.034;20.650;2023-03-15T11:19:53;6.50;90.50
28767;DHT22;15921;52.034;20.650;2023-03-15T11:22:21;6.50;90.40
28767;DHT22;15921;52.034;20.650;2023-03-15T11:24:47;6.60;90.50
28767;DHT22;15921;52.034;20.650;2023-03-15T11:27:15;6.40;89.90
28767;DHT22;15921;52.034;20.650;2023-03-15T11:29:47;6.50;90.50
28767;DHT22;15921;52.034;20.650;2023-03-15T11:32:20;6.30;90.50
28767;DHT22;15921;52.034;20.650;2023-03-15T11:35:05;6.20;89.80
28767;DHT22;15921;52.034;20.650;2023-03-15T11:37:55;6.50;90.10
28767;DHT22;15921;52.034;20.650;2023-03-15T11:40:30;6.70;88.70
28767;DHT22;15921;52.034;20.650;2023-03-15T11:43:04;6.90;87.40
28767;DHT22;15921;52.034;20.650;2023-03-15T11:45:39;6.70;86.50
28767;DHT22;15921;52.034;20.650;2023-03-15T11:48:25;6.60;86.40
28767;DHT22;15921;52.034;20.650;2023-03-15T11:50:53;6.70;87.30
28767;DHT22;15921;52.034;20.650;2023-03-15T11:53:20;6.70;86.80
28767;DHT22;15921;52.034;20.650;2023-03-15T11:55:49;6.80;85.90
28767;DHT22;15921;52.034;20.650;2023-03-15T12:01:03;6.90;86.40
28767;DHT22;15921;52.034;20.650;2023-03-15T12:03:32;7.20;85.90
28767;DHT22;15921;52.034;20.650;2023-03-15T12:06:34;7.30;86.20
28767;DHT22;15921;52.034;20.650;2023-03-15T12:08:58;7.50;85.00
28767;DHT22;15921;52.034;20.650;2023-03-15T12:14:21;7.10;86.80
28767;DHT22;15921;52.034;20.650;2023-03-15T12:16:49;6.90;85.90
28767;DHT22;15921;52.034;20.650;2023-03-15T12:19:19;6.80;85.10
28767;DHT22;15921;52.034;20.650;2023-03-15T12:21:56;7.00;86.70
28767;DHT22;15921;52.034;20.650;2023-03-15T12:24:34;7.00;85.30
28767;DHT22;15921;52.034;20.650;2023-03-15T12:27:20;7.30;85.10
28767;DHT22;15921;52.034;20.650;2023-03-15T12:29:47;7.70;84.60
28767;DHT22;15921;52.034;20.650;2023-03-15T12:32:22;7.60;81.60
28767;DHT22;15921;52.034;20.650;2023-03-15T12:34:49;7.40;80.30
28767;DHT22;15921;52.034;20.650;2023-03-15T12:37:32;7.30;82.00
28767;DHT22;15921;52.034;20.650;2023-03-15T12:53:02;7.70;82.00
28767;DHT22;15921;52.034;20.650;2023-03-15T12:55:32;7.50;82.40
28767;DHT22;15921;52.034;20.650;2023-03-15T12:57:59;7.40;81.80
28767;DHT22;15921;52.034;20.650;2023-03-15T13:00:28;7.20;81.90
28767;DHT22;15921;52.034;20.650;2023-03-15T13:06:03;7.00;82.30
28767;DHT22;15921;52.034;20.650;2023-03-15T13:08:34;6.80;82.40
28767;DHT22;15921;52.034;20.650;2023-03-15T13:11:24;6.80;83.10
28767;DHT22;15921;52.034;20.650;2023-03-15T13:22:03;6.90;83.60
28767;DHT22;15921;52.034;20.650;2023-03-15T13:27:53;7.10;83.00
28767;DHT22;15921;52.034;20.650;2023-03-15T13:33:45;7.10;82.00
28767;DHT22;15921;52.034;20.650;2023-03-15T13:41:19;6.60;85.00
28767;DHT22;15921;52.034;20.650;2023-03-15T13:43:45;6.60;84.90
28767;DHT22;15921;52.034;20.650;2023-03-15T13:46:11;6.60;84.50
28767;DHT22;15921;52.034;20.650;2023-03-15T13:48:41;6.40;84.60
28767;DHT22;15921;52.034;20.650;2023-03-15T13:51:17;6.20;85.80
28767;DHT22;15921;52.034;20.650;2023-03-15T13:53:46;6.40;87.30
28767;DHT22;15921;52.034;20.650;2023-03-15T13:59:11;6.30;86.70
28767;DHT22;15921;52.034;20.650;2023-03-15T14:01:38;6.40;86.70
28767;DHT22;15921;52.034;20.650;2023-03-15T14:04:13;6.30;86.30
28767;DHT22;15921;52.034;20.650;2023-03-15T14:06:40;6.30;85.80
28767;DHT22;15921;52.034;20.650;2023-03-15T14:09:10;6.40;85.80
28767;DHT22;15921;52.034;20.650;2023-03-15T14:11:40;6.40;85.10
28767;DHT22;15921;52.034;20.650;2023-03-15T14:14:36;6.50;83.70
28767;DHT22;15921;52.034;20.650;2023-03-15T14:17:16;6.80;82.80
28767;DHT22;15921;52.034;20.650;2023-03-15T14:19:55;6.90;80.80
28767;DHT22;15921;52.034;20.650;2023-03-15T14:22:21;6.90;80.30
28767;DHT22;15921;52.034;20.650;2023-03-15T14:24:49;6.80;79.30
28767;DHT22;15921;52.034;20.650;2023-03-15T14:27:19;6.60;80.50
28767;DHT22;15921;52.034;20.650;2023-03-15T14:29:51;6.50;81.00
28767;DHT22;15921;52.034;20.650;2023-03-15T14:32:34;6.50;81.90
28767;DHT22;15921;52.034;20.650;2023-03-15T14:35:16;6.70;81.60
28767;DHT22;15921;52.034;20.650;2023-03-15T14:37:43;7.20;79.00
28767;DHT22;15921;52.034;20.650;2023-03-15T14:42:42;7.60;76.60
28767;DHT22;15921;52.034;20.650;2023-03-15T14:45:08;7.60;77.00
28767;DHT22;15921;52.034;20.650;2023-03-15T14:47:37;8.40;76.70
28767;DHT22;15921;52.034;20.650;2023-03-15T14:50:11;9.00;75.00
28767;DHT22;15921;52.034;20.650;2023-03-15T14:52:38;9.10;73.80
28767;DHT22;15921;52.034;20.650;2023-03-15T14:55:04;8.60;74.50
28767;DHT22;15921;52.034;20.650;2023-03-15T14:57:30;8.00;75.50
28767;DHT22;15921;52.034;20.650;2023-03-15T14:59:55;7.60;76.40
28767;DHT22;15921;52.034;20.650;2023-03-15T15:02:21;7.30;76.40
28767;DHT22;15921;52.034;20.650;2023-03-15T15:04:47;7.10;77.10
28767;DHT22;15921;52.034;20.650;2023-03-15T15:07:14;6.80;78.40
28767;DHT22;15921;52.034;20.650;2023-03-15T15:09:45;6.60;79.70
28767;DHT22;15921;52.034;20.650;2023-03-15T15:12:11;6.40;78.60
28767;DHT22;15921;52.034;20.650;2023-03-15T15:14:37;6.20;79.80
28767;DHT22;15921;52.034;20.650;2023-03-15T15:17:03;6.10;80.90
28767;DHT22;15921;52.034;20.650;2023-03-15T15:19:29;6.10;81.70
28767;DHT22;15921;52.034;20.650;2023-03-15T15:21:55;6.10;81.50
28767;DHT22;15921;52.034;20.650;2023-03-15T15:24:23;6.00;81.90
28767;DHT22;15921;52.034;20.650;2023-03-15T15:26:49;6.00;82.30
28767;DHT22;15921;52.034;20.650;2023-03-15T15:29:15;5.90;82.90
28767;DHT22;15921;52.034;20.650;2023-03-15T15:31:42;6.00;82.70
28767;DHT22;15921;52.034;20.650;2023-03-15T15:34:10;5.90;84.00
28767;DHT22;15921;52.034;20.650;2023-03-15T15:36:38;5.80;83.90
28767;DHT22;15921;52.034;20.650;2023-03-15T15:39:23;5.70;84.00
28767;DHT22;15921;52.034;20.650;2023-03-15T15:41:50;5.60;84.50
28767;DHT22;15921;52.034;20.650;2023-03-15T15:44:18;5.60;85.00
28767;DHT22;15921;52.034;20.650;2023-03-15T15:46:44;5.60;85.40
28767;DHT22;15921;52.034;20.650;2023-03-15T15:49:10;5.80;85.40
28767;DHT22;15921;52.034;20.650;2023-03-15T15:51:38;5.90;85.20
28767;DHT22;15921;52.034;20.650;2023-03-15T15:54:29;6.00;84.90
28767;DHT22;15921;52.034;20.650;2023-03-15T15:56:57;6.00;84.90
28767;DHT22;15921;52.034;20.650;2023-03-15T15:59:24;5.90;85.60
28767;DHT22;15921;52.034;20.650;2023-03-15T16:01:53;5.90;85.90
28767;DHT22;15921;52.034;20.650;2023-03-15T16:04:19;5.80;86.00
28767;DHT22;15921;52.034;20.650;2023-03-15T16:06:50;5.80;86.40
28767;DHT22;15921;52.034;20.650;2023-03-15T16:09:17;5.70;86.50
28767;DHT22;15921;52.034;20.650;2023-03-15T16:11:44;5.70;86.90
28767;DHT22;15921;52.034;20.650;2023-03-15T16:14:11;5.60;87.30
28767;DHT22;15921;52.034;20.650;2023-03-15T16:16:37;5.50;87.60
28767;DHT22;15921;52.034;20.650;2023-03-15T16:19:03;5.40;88.70
28767;DHT22;15921;52.034;20.650;2023-03-15T16:21:33;5.20;88.30
28767;DHT22;15921;52.034;20.650;2023-03-15T16:24:17;5.10;89.00
28767;DHT22;15921;52.034;20.650;2023-03-15T16:26:44;4.90;89.70
28767;DHT22;15921;52.034;20.650;2023-03-15T16:29:17;4.80;90.10
28767;DHT22;15921;52.034;20.650;2023-03-15T16:31:44;4.80;90.30
28767;DHT22;15921;52.034;20.650;2023-03-15T16:34:11;4.70;90.40
28767;DHT22;15921;52.034;20.650;2023-03-15T16:36:41;4.60;90.60
28767;DHT22;15921;52.034;20.650;2023-03-15T16:39:13;4.50;90.60
28767;DHT22;15921;52.034;20.650;2023-03-15T16:41:39;4.50;90.80
28767;DHT22;15921;52.034;20.650;2023-03-15T16:44:11;4.40;90.80
28767;DHT22;15921;52.034;20.650;2023-03-15T16:46:37;4.30;91.10
28767;DHT22;15921;52.034;20.650;2023-03-15T16:49:03;4.20;91.30
28767;DHT22;15921;52.034;20.650;2023-03-15T16:51:28;4.10;91.50
28767;DHT22;15921;52.034;20.650;2023-03-15T16:53:54;4.00;92.00
28767;DHT22;15921;52.034;20.650;2023-03-15T16:56:20;3.90;92.20